Time;durP1;ratioP1;P1;durP2;ratioP2;P2;SDS_P1;SDS_P2;PMS_P1;PMS_P2;Temp;Humidity;BMP_temperature;BMP_pressure;BME280_temperature;BME280_humidity;BME280_pressure;Samples;Min_cycle;Max_cycle;Signal;HPM_P1;HPM_P2
2023/08/30 00:00:41;;;;;;;6.07;4.87;;;12.90;99.90;;;;;;5044168;28;20217;-63
2023/08/30 00:03:09;;;;;;;5.40;5.00;;;12.90;99.90;;;;;;5045089;28;20213;-63
2023/08/30 00:05:41;;;;;;;7.13;4.77;;;13.00;99.90;;;;;;5043479;28;20242;-64
2023/08/30 00:08:10;;;;;;;5.03;4.63;;;13.10;99.90;;;;;;5043978;28;20228;-64
2023/08/30 00:10:38;;;;;;;5.30;4.90;;;13.10;99.90;;;;;;5041748;28;20854;-64
2023/08/30 00:13:07;;;;;;;5.10;4.60;;;13.10;99.90;;;;;;5042669;28;20233;-64
2023/08/30 00:15:35;;;;;;;5.83;5.20;;;13.10;99.90;;;;;;5042369;28;20235;-64
2023/08/30 00:18:04;;;;;;;5.90;4.83;;;13.20;99.90;;;;;;5035911;28;20231;-64
2023/08/30 00:20:32;;;;;;;5.23;4.83;;;13.20;99.90;;;;;;5041648;28;20240;-64
2023/08/30 00:23:03;;;;;;;5.67;5.27;;;13.20;99.90;;;;;;5040391;28;20225;-64
2023/08/30 00:25:31;;;;;;;6.23;4.93;;;13.20;99.90;;;;;;5043532;28;20731;-63
2023/08/30 00:28:00;;;;;;;5.63;5.10;;;13.20;99.90;;;;;;5024158;28;20227;-63
2023/08/30 00:30:28;;;;;;;5.43;4.93;;;13.20;99.90;;;;;;5040057;28;20226;-64
2023/08/30 00:32:56;;;;;;;5.37;4.93;;;13.10;99.90;;;;;;5039528;28;20231;-63
2023/08/30 00:35:25;;;;;;;5.63;5.10;;;13.10;99.90;;;;;;5042093;28;20205;-64
2023/08/30 00:37:53;;;;;;;6.43;5.47;;;13.10;99.90;;;;;;5040816;28;20755;-64
2023/08/30 00:40:26;;;;;;;6.07;5.47;;;13.00;99.90;;;;;;5041200;28;22541;-63
2023/08/30 00:42:54;;;;;;;5.90;5.40;;;13.00;99.90;;;;;;5046335;28;20224;-63
2023/08/30 00:45:23;;;;;;;6.50;5.77;;;13.00;99.90;;;;;;5040904;28;20323;-64
2023/08/30 00:47:51;;;;;;;6.43;5.50;;;13.00;99.90;;;;;;5042590;28;20196;-64
2023/08/30 00:50:19;;;;;;;7.13;5.47;;;13.00;99.90;;;;;;5041007;28;20690;-64
2023/08/30 00:52:48;;;;;;;6.77;5.67;;;12.90;99.90;;;;;;5044006;28;20221;-64
2023/08/30 00:55:16;;;;;;;7.80;5.93;;;12.90;99.90;;;;;;5040676;28;20567;-64
2023/08/30 00:57:49;;;;;;;7.77;5.80;;;12.90;99.90;;;;;;5038355;28;20231;-64
2023/08/30 01:00:18;;;;;;;6.50;5.43;;;12.90;99.90;;;;;;5041084;28;20671;-64
2023/08/30 01:02:46;;;;;;;6.77;5.97;;;12.90;99.90;;;;;;5041824;28;20197;-64
2023/08/30 01:05:15;;;;;;;7.30;5.47;;;12.90;99.90;;;;;;5044968;28;20277;-64
2023/08/30 01:07:43;;;;;;;6.50;5.90;;;12.90;99.90;;;;;;5042982;28;20344;-65
2023/08/30 01:10:12;;;;;;;10.80;5.67;;;12.90;99.90;;;;;;5043942;28;20593;-64
2023/08/30 01:12:44;;;;;;;8.63;6.07;;;12.90;99.90;;;;;;5035218;28;20233;-64
2023/08/30 01:15:19;;;;;;;5.87;5.30;;;12.90;99.90;;;;;;5038894;28;20189;-64
2023/08/30 01:17:49;;;;;;;9.93;5.90;;;12.80;99.90;;;;;;5038457;28;20207;-64
2023/08/30 01:20:22;;;;;;;7.90;6.40;;;12.80;99.90;;;;;;5037231;28;20224;-64
2023/08/30 01:23:01;;;;;;;7.13;6.27;;;12.80;99.90;;;;;;5039257;28;20712;-64
2023/08/30 01:25:39;;;;;;;7.60;6.23;;;12.70;99.90;;;;;;5026085;28;20259;-64
2023/08/30 01:28:09;;;;;;;10.17;6.50;;;12.70;99.90;;;;;;5040004;28;20225;-64
2023/08/30 01:30:42;;;;;;;7.60;6.67;;;12.60;99.90;;;;;;5038181;28;20763;-64
2023/08/30 01:33:12;;;;;;;8.40;6.23;;;12.60;99.90;;;;;;5036157;28;20198;-64
2023/08/30 01:35:41;;;;;;;8.37;6.77;;;12.60;99.90;;;;;;5040545;28;20197;-64
2023/08/30 01:38:10;;;;;;;9.13;6.53;;;12.50;99.90;;;;;;5039295;28;20224;-64
2023/08/30 01:40:43;;;;;;;14.90;6.90;;;12.50;99.90;;;;;;5042471;28;20218;-64
2023/08/30 01:43:14;;;;;;;11.83;6.80;;;12.40;99.90;;;;;;5038376;28;20217;-64
2023/08/30 01:45:44;;;;;;;10.03;6.90;;;12.40;99.90;;;;;;5044059;28;20584;-64
2023/08/30 01:48:15;;;;;;;9.40;7.23;;;12.40;99.90;;;;;;5043311;28;20566;-64
2023/08/30 01:50:45;;;;;;;7.07;6.30;;;12.40;99.90;;;;;;5044867;28;20217;-64
2023/08/30 01:53:15;;;;;;;8.70;6.90;;;12.40;99.90;;;;;;5044216;28;20574;-64
2023/08/30 01:55:44;;;;;;;12.97;7.60;;;12.40;99.90;;;;;;5040006;28;20248;-65
2023/08/30 01:58:13;;;;;;;7.87;6.90;;;12.40;99.90;;;;;;5043685;28;20213;-64
2023/08/30 02:00:42;;;;;;;9.23;6.83;;;12.40;99.90;;;;;;5042502;28;20227;-64
2023/08/30 02:03:11;;;;;;;8.07;6.30;;;12.40;99.90;;;;;;5044932;28;20202;-64
2023/08/30 02:05:48;;;;;;;8.93;7.30;;;12.50;99.90;;;;;;5042912;28;20227;-64
2023/08/30 02:08:18;;;;;;;9.53;6.70;;;12.50;99.90;;;;;;5046245;28;20220;-64
2023/08/30 02:10:53;;;;;;;9.10;6.90;;;12.50;99.90;;;;;;5044894;28;20226;-64
2023/08/30 02:13:27;;;;;;;9.00;7.30;;;12.50;99.90;;;;;;5041802;28;20229;-64
2023/08/30 02:15:57;;;;;;;9.60;7.23;;;12.60;99.90;;;;;;5039599;28;20225;-64
2023/08/30 02:18:27;;;;;;;11.17;7.33;;;12.60;99.90;;;;;;5041912;28;20221;-64
2023/08/30 02:20:56;;;;;;;8.77;6.83;;;12.70;99.90;;;;;;5043224;28;20284;-64
2023/08/30 02:23:25;;;;;;;8.73;7.10;;;12.80;99.90;;;;;;5042428;28;20216;-64
2023/08/30 02:25:55;;;;;;;10.63;6.67;;;12.80;99.90;;;;;;5043373;28;20263;-64
2023/08/30 02:28:25;;;;;;;8.30;6.57;;;12.90;99.90;;;;;;5041363;28;20224;-64
2023/08/30 02:30:54;;;;;;;7.43;6.73;;;13.00;99.90;;;;;;5045500;28;20252;-64
2023/08/30 02:33:23;;;;;;;8.00;6.93;;;13.10;99.90;;;;;;5042814;28;20335;-64
2023/08/30 02:35:51;;;;;;;10.53;7.23;;;13.10;99.90;;;;;;5044207;28;20213;-64
2023/08/30 02:38:20;;;;;;;8.93;6.97;;;13.10;99.90;;;;;;5044648;28;20221;-64
2023/08/30 02:40:48;;;;;;;8.87;6.60;;;13.20;99.90;;;;;;5043891;28;20223;-64
2023/08/30 02:43:16;;;;;;;10.83;6.90;;;13.20;99.90;;;;;;5042660;28;20209;-64
2023/08/30 02:45:46;;;;;;;9.37;6.87;;;13.30;99.90;;;;;;5044599;28;20232;-64
2023/08/30 02:48:14;;;;;;;7.13;6.33;;;13.30;99.90;;;;;;5041778;28;20190;-64
2023/08/30 02:50:43;;;;;;;10.00;6.97;;;13.30;99.90;;;;;;5040255;28;20354;-64
2023/08/30 02:53:11;;;;;;;7.23;5.73;;;13.40;99.90;;;;;;5043782;28;20746;-64
2023/08/30 02:55:39;;;;;;;10.43;6.60;;;13.50;99.90;;;;;;5045893;28;20224;-64
2023/08/30 02:58:08;;;;;;;9.57;6.53;;;13.40;99.90;;;;;;5041857;28;20308;-64
2023/08/30 03:00:37;;;;;;;8.33;6.83;;;13.40;99.90;;;;;;5044723;28;20243;-64
2023/08/30 03:03:06;;;;;;;8.57;6.80;;;13.40;99.90;;;;;;5043462;28;20221;-63
2023/08/30 03:05:35;;;;;;;7.17;6.40;;;13.50;99.90;;;;;;5042909;28;20262;-64
2023/08/30 03:08:04;;;;;;;8.43;6.40;;;13.40;99.90;;;;;;5041091;28;20895;-64
2023/08/30 03:10:32;;;;;;;7.80;6.10;;;13.50;99.90;;;;;;5041667;28;20236;-64
2023/08/30 03:13:00;;;;;;;9.03;6.53;;;13.50;99.90;;;;;;5041605;28;20635;-63
2023/08/30 03:15:32;;;;;;;7.90;6.23;;;13.50;99.90;;;;;;5046063;28;20249;-63
2023/08/30 03:18:01;;;;;;;9.90;6.73;;;13.50;99.90;;;;;;5042763;28;20203;-62
2023/08/30 03:20:31;;;;;;;12.30;6.63;;;13.50;99.90;;;;;;5044629;28;20271;-63
2023/08/30 03:22:59;;;;;;;8.20;6.53;;;13.50;99.90;;;;;;5044869;28;20214;-63
2023/08/30 03:25:30;;;;;;;7.70;6.07;;;13.50;99.90;;;;;;5042785;28;20267;-63
2023/08/30 03:27:58;;;;;;;7.87;6.20;;;13.50;99.90;;;;;;5041920;28;20222;-64
2023/08/30 03:30:27;;;;;;;7.00;6.20;;;13.50;99.90;;;;;;5044352;28;20683;-63
2023/08/30 03:32:55;;;;;;;7.90;6.60;;;13.60;99.90;;;;;;5041638;28;20208;-62
2023/08/30 03:35:23;;;;;;;6.70;6.00;;;13.60;99.90;;;;;;5043906;28;20214;-63
2023/08/30 03:37:53;;;;;;;10.43;6.50;;;13.60;99.90;;;;;;5041173;28;20584;-63
2023/08/30 03:40:22;;;;;;;8.30;6.63;;;13.60;99.90;;;;;;5039774;28;20573;-64
2023/08/30 03:42:51;;;;;;;11.30;6.53;;;13.60;99.90;;;;;;5046081;28;20228;-63
2023/08/30 03:45:19;;;;;;;10.90;6.63;;;13.60;99.90;;;;;;5045848;28;20221;-63
2023/08/30 03:47:47;;;;;;;11.80;6.70;;;13.50;99.90;;;;;;5044583;28;20196;-63
2023/08/30 03:50:16;;;;;;;9.50;6.60;;;13.50;99.90;;;;;;5041813;28;20321;-63
2023/08/30 03:52:44;;;;;;;11.73;6.93;;;13.60;99.90;;;;;;5046930;28;20222;-62
2023/08/30 03:55:14;;;;;;;11.03;7.23;;;13.60;99.90;;;;;;5042423;28;20314;-63
2023/08/30 03:57:42;;;;;;;10.57;7.10;;;13.60;99.90;;;;;;5039419;28;20259;-62
2023/08/30 04:00:11;;;;;;;10.57;7.67;;;13.50;99.90;;;;;;5043462;28;20696;-62
2023/08/30 04:02:40;;;;;;;12.00;8.10;;;13.50;99.90;;;;;;5044951;28;20211;-62
2023/08/30 04:05:09;;;;;;;11.33;7.87;;;13.50;99.90;;;;;;5047973;28;20241;-63
2023/08/30 04:07:37;;;;;;;11.40;7.60;;;13.40;99.90;;;;;;5044346;28;20226;-63
2023/08/30 04:10:07;;;;;;;14.47;8.03;;;13.40;99.90;;;;;;5043562;28;20240;-62
2023/08/30 04:12:36;;;;;;;15.87;7.63;;;13.30;99.90;;;;;;5041363;28;20233;-63
2023/08/30 04:15:05;;;;;;;15.07;8.30;;;13.30;99.90;;;;;;5021856;28;20213;-62
2023/08/30 04:17:34;;;;;;;15.10;7.93;;;13.40;99.90;;;;;;5022140;28;20205;-63
2023/08/30 04:20:02;;;;;;;12.03;8.10;;;13.40;99.90;;;;;;5041325;28;20225;-62
2023/08/30 04:22:34;;;;;;;10.10;7.73;;;13.40;99.90;;;;;;5042366;28;20311;-63
2023/08/30 04:25:04;;;;;;;15.57;8.67;;;13.40;99.90;;;;;;5044611;28;20248;-62
2023/08/30 04:27:32;;;;;;;11.20;8.03;;;13.30;99.90;;;;;;5043978;28;20711;-62
2023/08/30 04:30:02;;;;;;;17.47;8.80;;;13.30;99.90;;;;;;5043702;28;20208;-61
2023/08/30 04:32:31;;;;;;;13.73;8.27;;;13.30;99.90;;;;;;5044361;28;20210;-62
2023/08/30 04:34:59;;;;;;;9.63;7.93;;;13.30;99.90;;;;;;5041300;28;20287;-62
2023/08/30 04:37:32;;;;;;;14.53;8.53;;;13.30;99.90;;;;;;5040611;28;20221;-63
2023/08/30 04:40:00;;;;;;;14.57;9.47;;;13.30;99.90;;;;;;5041314;28;21457;-62
2023/08/30 04:42:28;;;;;;;15.17;9.13;;;13.30;99.90;;;;;;5040708;28;21941;-62
2023/08/30 04:45:00;;;;;;;12.17;9.23;;;13.30;99.90;;;;;;5026261;28;20185;-62
2023/08/30 04:47:31;;;;;;;18.03;9.23;;;13.30;99.90;;;;;;5048753;28;20193;-63
2023/08/30 04:50:00;;;;;;;15.47;9.73;;;13.30;99.90;;;;;;5048590;28;20221;-63
2023/08/30 04:52:28;;;;;;;11.80;9.33;;;13.40;99.90;;;;;;5032124;28;20216;-63
2023/08/30 04:54:56;;;;;;;14.20;9.00;;;13.40;99.90;;;;;;5050937;28;20567;-63
2023/08/30 04:57:25;;;;;;;9.83;8.57;;;13.40;99.90;;;;;;5046534;28;20222;-62
2023/08/30 04:59:53;;;;;;;14.00;9.80;;;13.40;99.90;;;;;;5048275;28;20572;-63
2023/08/30 05:02:21;;;;;;;14.30;9.67;;;13.40;99.90;;;;;;5050419;28;20545;-63
2023/08/30 05:04:51;;;;;;;15.27;10.20;;;13.40;99.90;;;;;;5052289;28;20221;-63
2023/08/30 05:07:19;;;;;;;15.73;9.97;;;13.50;99.90;;;;;;5039924;28;20224;-64
2023/08/30 05:09:47;;;;;;;12.20;10.00;;;13.50;99.90;;;;;;5029427;28;20230;-64
2023/08/30 05:12:16;;;;;;;14.30;10.60;;;13.50;99.90;;;;;;5029494;28;20291;-63
2023/08/30 05:14:44;;;;;;;12.23;9.80;;;13.50;99.90;;;;;;5023738;28;20190;-63
2023/08/30 05:17:12;;;;;;;17.33;10.70;;;13.50;99.90;;;;;;5029842;28;20222;-65
2023/08/30 05:19:40;;;;;;;13.00;9.63;;;13.50;99.90;;;;;;5027301;28;20228;-63
2023/08/30 05:22:10;;;;;;;16.73;9.70;;;13.60;99.90;;;;;;5019205;28;20248;-62
2023/08/30 05:24:39;;;;;;;13.67;9.77;;;13.60;99.90;;;;;;5029026;28;20229;-63
2023/08/30 05:27:11;;;;;;;13.90;10.00;;;13.60;99.90;;;;;;5031710;28;20208;-62
2023/08/30 05:29:39;;;;;;;13.53;10.37;;;13.60;99.90;;;;;;5030960;28;20202;-62
2023/08/30 05:32:07;;;;;;;14.10;10.40;;;13.60;99.90;;;;;;5042888;28;20222;-63
2023/08/30 05:34:36;;;;;;;13.97;10.37;;;13.60;99.90;;;;;;5023249;28;20229;-63
2023/08/30 05:37:04;;;;;;;14.27;10.87;;;13.60;99.90;;;;;;5020762;28;20231;-62
2023/08/30 05:39:35;;;;;;;16.53;10.47;;;13.60;99.90;;;;;;5023436;28;20663;-62
2023/08/30 05:42:03;;;;;;;16.43;11.50;;;13.60;99.90;;;;;;5026590;28;20304;-63
2023/08/30 05:44:32;;;;;;;17.23;12.07;;;13.60;99.90;;;;;;5022512;28;20189;-63
2023/08/30 05:47:00;;;;;;;18.00;11.33;;;13.60;99.90;;;;;;5029276;28;20275;-62
2023/08/30 05:49:28;;;;;;;17.03;11.53;;;13.60;99.90;;;;;;5027586;28;20229;-63
2023/08/30 05:51:56;;;;;;;22.53;12.53;;;13.60;99.90;;;;;;5032943;28;20221;-63
2023/08/30 05:54:26;;;;;;;19.93;12.30;;;13.60;99.90;;;;;;5033322;28;20226;-62
2023/08/30 05:56:56;;;;;;;17.10;11.63;;;13.60;99.90;;;;;;5027866;28;20210;-62
2023/08/30 05:59:24;;;;;;;15.20;11.37;;;13.60;99.90;;;;;;5030608;28;20214;-63
2023/08/30 06:01:52;;;;;;;15.07;11.87;;;13.60;99.90;;;;;;5028205;28;20221;-62
2023/08/30 06:04:21;;;;;;;20.87;12.53;;;13.70;99.90;;;;;;5037978;28;20642;-63
2023/08/30 06:06:49;;;;;;;20.27;12.93;;;13.70;99.90;;;;;;5050585;28;20235;-63
2023/08/30 06:09:18;;;;;;;20.40;12.73;;;13.70;99.90;;;;;;5045686;28;20230;-63
2023/08/30 06:11:46;;;;;;;26.17;12.93;;;13.70;99.90;;;;;;5031026;28;20548;-63
2023/08/30 06:14:16;;;;;;;23.93;12.27;;;13.70;99.90;;;;;;5044435;28;20232;-63
2023/08/30 06:16:44;;;;;;;21.40;12.33;;;13.70;99.90;;;;;;5046184;28;20222;-63
2023/08/30 06:19:13;;;;;;;18.27;11.97;;;13.70;99.90;;;;;;5047010;28;20217;-63
2023/08/30 06:21:41;;;;;;;22.03;12.03;;;13.70;99.90;;;;;;5042880;28;20238;-62
2023/08/30 06:24:09;;;;;;;19.47;11.50;;;13.70;99.90;;;;;;5047618;28;20192;-63
2023/08/30 06:26:38;;;;;;;18.17;11.60;;;13.70;99.90;;;;;;5044242;28;20639;-63
2023/08/30 06:29:06;;;;;;;17.53;11.63;;;13.80;99.90;;;;;;5046759;28;20236;-63
2023/08/30 06:31:35;;;;;;;16.43;10.67;;;13.80;99.90;;;;;;5039513;28;20724;-64
2023/08/30 06:34:04;;;;;;;17.73;10.77;;;13.80;99.90;;;;;;5044317;28;20308;-63
2023/08/30 06:36:32;;;;;;;16.80;10.30;;;13.80;99.90;;;;;;5043947;28;20579;-63
2023/08/30 06:39:01;;;;;;;18.03;10.03;;;13.80;99.90;;;;;;5048405;28;20194;-59
2023/08/30 06:41:29;;;;;;;19.97;9.60;;;13.80;99.90;;;;;;5046145;28;20204;-63
2023/08/30 06:43:58;;;;;;;15.03;8.90;;;13.90;99.90;;;;;;5044812;28;20212;-63
2023/08/30 06:46:26;;;;;;;16.20;9.83;;;13.90;99.90;;;;;;5044968;28;20227;-64
2023/08/30 06:48:56;;;;;;;15.07;10.37;;;13.90;99.90;;;;;;5044621;28;20309;-63
2023/08/30 06:51:24;;;;;;;17.07;9.90;;;13.90;99.90;;;;;;5049469;28;20234;-63
2023/08/30 06:53:55;;;;;;;15.97;10.70;;;13.90;99.90;;;;;;5049953;28;20213;-64
2023/08/30 06:56:23;;;;;;;13.83;9.83;;;13.90;99.90;;;;;;5051401;28;20525;-64
2023/08/30 06:58:52;;;;;;;15.37;9.97;;;13.90;99.90;;;;;;5044144;28;20269;-63
2023/08/30 07:01:20;;;;;;;15.93;10.10;;;13.90;99.90;;;;;;5044101;28;20226;-64
2023/08/30 07:03:48;;;;;;;12.47;9.10;;;13.90;99.90;;;;;;5051266;28;20313;-64
2023/08/30 07:06:18;;;;;;;17.13;9.43;;;13.90;99.90;;;;;;5026592;28;20217;-63
2023/08/30 07:08:46;;;;;;;16.17;8.90;;;14.00;99.90;;;;;;5044796;28;20200;-63
2023/08/30 07:11:14;;;;;;;11.40;8.43;;;14.00;99.90;;;;;;5040970;28;20225;-63
2023/08/30 07:14:00;;;;;;;13.27;8.23;;;14.00;99.90;;;;;;5049986;28;20279;-63
2023/08/30 07:16:28;;;;;;;13.70;8.60;;;14.10;99.90;;;;;;5045865;28;20239;-63
2023/08/30 07:18:57;;;;;;;13.20;8.60;;;14.10;99.90;;;;;;5044093;28;20636;-63
2023/08/30 07:21:26;;;;;;;13.33;9.20;;;14.10;99.90;;;;;;5040123;28;20241;-63
2023/08/30 07:23:55;;;;;;;11.53;8.60;;;14.10;99.90;;;;;;5039807;28;20177;-64
2023/08/30 07:26:23;;;;;;;13.67;8.40;;;14.20;99.90;;;;;;5041826;28;20597;-64
2023/08/30 07:28:52;;;;;;;13.30;8.70;;;14.20;99.90;;;;;;5039705;28;20217;-63
2023/08/30 07:31:21;;;;;;;14.17;9.03;;;14.20;99.90;;;;;;5040617;28;20233;-64
2023/08/30 07:33:50;;;;;;;14.43;8.80;;;14.20;99.90;;;;;;5043717;28;20253;-63
2023/08/30 07:36:18;;;;;;;13.60;8.90;;;14.20;99.90;;;;;;5044444;28;20599;-63
2023/08/30 07:38:49;;;;;;;13.33;9.20;;;14.20;99.90;;;;;;5043849;28;20267;-63
2023/08/30 07:41:17;;;;;;;14.53;9.57;;;14.30;99.90;;;;;;5047317;28;20217;-64
2023/08/30 07:43:45;;;;;;;15.97;9.73;;;14.40;99.90;;;;;;5038888;28;20224;-63
2023/08/30 07:46:13;;;;;;;15.23;10.10;;;14.40;99.90;;;;;;5046387;28;20221;-63
2023/08/30 07:48:41;;;;;;;15.93;10.23;;;14.50;99.90;;;;;;5041490;28;20230;-63
2023/08/30 07:51:10;;;;;;;16.73;11.00;;;14.70;99.90;;;;;;5048532;28;20193;-63
2023/08/30 07:53:38;;;;;;;14.50;10.30;;;15.00;99.90;;;;;;5046848;28;20242;-64
2023/08/30 07:56:08;;;;;;;14.83;10.53;;;15.10;99.90;;;;;;5043425;28;20218;-64
2023/08/30 07:58:36;;;;;;;13.10;10.07;;;15.30;99.90;;;;;;5045045;28;20663;-64
2023/08/30 08:01:05;;;;;;;15.43;9.87;;;15.20;99.90;;;;;;5041573;28;20230;-64
2023/08/30 08:03:33;;;;;;;13.60;9.23;;;15.20;99.90;;;;;;5046676;28;20217;-63
2023/08/30 08:06:01;;;;;;;12.83;10.17;;;15.30;99.90;;;;;;5042595;28;20227;-63
2023/08/30 08:08:30;;;;;;;11.87;9.77;;;15.50;99.90;;;;;;5043331;28;20225;-64
2023/08/30 08:11:00;;;;;;;9.70;8.70;;;15.60;99.90;;;;;;5025792;28;20939;-66
2023/08/30 08:13:29;;;;;;;14.30;10.30;;;15.70;99.90;;;;;;5040730;28;20284;-64
2023/08/30 08:15:58;;;;;;;12.33;10.03;;;15.80;99.90;;;;;;5044854;28;20547;-64
2023/08/30 08:18:27;;;;;;;11.27;9.73;;;15.80;99.90;;;;;;5048852;28;20765;-63
2023/08/30 08:20:55;;;;;;;11.07;9.87;;;15.80;99.90;;;;;;5044725;28;20203;-64
2023/08/30 08:23:24;;;;;;;11.13;9.27;;;15.90;99.90;;;;;;5049535;28;20208;-65
2023/08/30 08:25:58;;;;;;;13.00;10.23;;;16.00;99.90;;;;;;5046186;28;20239;-64
2023/08/30 08:28:27;;;;;;;16.13;11.03;;;16.20;99.90;;;;;;5042554;28;20215;-64
2023/08/30 08:30:56;;;;;;;11.03;9.87;;;16.20;99.90;;;;;;5042792;28;20228;-64
2023/08/30 08:33:24;;;;;;;12.17;10.07;;;16.10;99.90;;;;;;5049056;28;20219;-64
2023/08/30 08:35:53;;;;;;;11.40;9.27;;;16.10;99.90;;;;;;5043967;28;20188;-64
2023/08/30 08:38:22;;;;;;;11.13;9.93;;;16.20;99.90;;;;;;5041302;28;20213;-63
2023/08/30 08:40:53;;;;;;;11.73;8.57;;;16.30;99.90;;;;;;5048117;28;20605;-64
2023/08/30 08:43:22;;;;;;;10.60;8.50;;;16.40;99.90;;;;;;5045236;28;20317;-64
2023/08/30 08:45:51;;;;;;;9.40;8.40;;;16.40;99.90;;;;;;5047137;28;20235;-63
2023/08/30 08:48:21;;;;;;;9.27;8.37;;;16.50;99.90;;;;;;5043380;28;20681;-64
2023/08/30 08:50:50;;;;;;;7.93;7.23;;;16.60;99.90;;;;;;5042749;28;20199;-64
2023/08/30 08:53:19;;;;;;;9.33;7.30;;;16.70;99.90;;;;;;5028193;28;20223;-63
2023/08/30 08:55:48;;;;;;;8.17;7.37;;;16.90;99.90;;;;;;5050580;28;20234;-63
2023/08/30 08:58:17;;;;;;;7.00;6.40;;;17.10;99.90;;;;;;5039326;28;20730;-64
2023/08/30 09:00:46;;;;;;;6.57;5.90;;;17.10;99.90;;;;;;5041888;28;20234;-64
2023/08/30 09:03:14;;;;;;;12.23;6.60;;;17.00;99.90;;;;;;5044244;28;20200;-63
2023/08/30 09:05:46;;;;;;;7.07;6.37;;;16.80;99.90;;;;;;5042700;28;20602;-63
2023/08/30 09:08:16;;;;;;;6.37;5.73;;;16.80;99.90;;;;;;5043272;28;20221;-63
2023/08/30 09:10:45;;;;;;;7.03;6.33;;;16.70;99.90;;;;;;5041572;28;20359;-63
2023/08/30 09:13:13;;;;;;;7.33;6.67;;;16.60;99.90;;;;;;5040347;28;20306;-63
2023/08/30 09:15:41;;;;;;;8.33;6.77;;;16.50;99.90;;;;;;5040858;28;20900;-63
2023/08/30 09:18:16;;;;;;;9.20;7.30;;;16.40;99.90;;;;;;5036546;28;20197;-63
2023/08/30 09:20:46;;;;;;;7.70;7.00;;;16.30;99.90;;;;;;5040912;28;20204;-64
2023/08/30 09:23:20;;;;;;;8.47;7.53;;;16.30;99.90;;;;;;5043962;28;20235;-63
2023/08/30 09:25:54;;;;;;;9.43;7.63;;;16.30;99.90;;;;;;5046000;28;20226;-63
2023/08/30 09:28:23;;;;;;;9.53;7.60;;;16.30;99.90;;;;;;5046922;28;20224;-63
2023/08/30 09:30:52;;;;;;;12.77;7.67;;;16.50;99.90;;;;;;5047875;28;22212;-64
2023/08/30 09:33:22;;;;;;;11.03;7.73;;;16.60;99.90;;;;;;5047251;28;20555;-63
2023/08/30 09:35:53;;;;;;;11.13;7.70;;;16.70;99.90;;;;;;5046735;28;20224;-63
2023/08/30 09:38:21;;;;;;;7.00;6.13;;;16.60;99.90;;;;;;5050510;28;20219;-63
2023/08/30 09:40:49;;;;;;;7.73;6.90;;;16.70;99.90;;;;;;5041133;28;20690;-63
2023/08/30 09:43:21;;;;;;;7.77;6.93;;;16.90;99.90;;;;;;5045135;28;20260;-62
2023/08/30 09:45:51;;;;;;;9.37;6.50;;;17.20;99.90;;;;;;5049507;28;20747;-62
2023/08/30 09:48:22;;;;;;;6.30;5.57;;;17.40;99.90;;;;;;5047828;28;20231;-63
2023/08/30 09:50:55;;;;;;;10.17;4.77;;;17.70;99.90;;;;;;5042558;28;20201;-63
2023/08/30 09:53:27;;;;;;;5.03;4.40;;;17.80;99.90;;;;;;5047331;28;20223;-63
2023/08/30 09:55:56;;;;;;;8.80;4.43;;;17.70;99.90;;;;;;5047951;28;20220;-63
2023/08/30 09:58:27;;;;;;;6.23;3.90;;;17.60;99.90;;;;;;5044028;28;20715;-62
2023/08/30 10:00:56;;;;;;;4.43;3.40;;;17.50;99.90;;;;;;5042613;28;20228;-63
2023/08/30 10:03:26;;;;;;;7.17;3.77;;;17.70;99.90;;;;;;5047272;28;20215;-62
2023/08/30 10:06:05;;;;;;;4.13;3.27;;;17.80;99.90;;;;;;5042289;28;20221;-61
2023/08/30 10:08:36;;;;;;;5.10;3.23;;;17.80;99.90;;;;;;5046218;28;20529;-62
2023/08/30 10:11:06;;;;;;;5.27;3.97;;;17.60;99.90;;;;;;5046358;28;20243;-62
2023/08/30 10:13:39;;;;;;;3.73;3.30;;;17.60;99.90;;;;;;5048839;28;20236;-63
2023/08/30 10:16:09;;;;;;;6.43;3.70;;;17.40;99.90;;;;;;5046525;28;20735;-62
2023/08/30 10:18:39;;;;;;;4.73;3.47;;;17.40;99.90;;;;;;5047090;28;21192;-62
2023/08/30 10:21:21;;;;;;;5.90;3.00;;;17.30;99.90;;;;;;5042313;28;20225;-63
2023/08/30 10:23:55;;;;;;;5.33;3.00;;;17.50;99.90;;;;;;5047720;28;20193;-63
2023/08/30 10:26:24;;;;;;;3.70;2.20;;;17.70;99.90;;;;;;5027030;28;20251;-62
2023/08/30 10:28:55;;;;;;;6.80;2.80;;;18.00;99.90;;;;;;5042677;28;20232;-63
2023/08/30 10:31:24;;;;;;;4.73;2.10;;;18.40;99.90;;;;;;5039382;28;20217;-62
2023/08/30 10:33:56;;;;;;;4.67;2.63;;;18.70;99.90;;;;;;5043871;28;20299;-63
2023/08/30 10:36:27;;;;;;;4.00;2.40;;;19.00;99.90;;;;;;5042046;28;20236;-62
2023/08/30 10:38:55;;;;;;;4.67;2.43;;;19.00;99.90;;;;;;5043684;28;20208;-62
2023/08/30 10:41:25;;;;;;;6.20;2.47;;;19.00;99.90;;;;;;5047298;28;20217;-63
2023/08/30 10:43:56;;;;;;;4.60;2.37;;;19.00;99.90;;;;;;5029201;28;20675;-63
2023/08/30 10:46:32;;;;;;;3.33;2.20;;;19.00;99.90;;;;;;5042830;28;20266;-62
2023/08/30 10:49:10;;;;;;;5.07;2.70;;;19.10;99.90;;;;;;5043163;28;20298;-62
2023/08/30 10:51:41;;;;;;;5.87;2.67;;;19.20;99.90;;;;;;5043421;28;20584;-62
2023/08/30 10:54:13;;;;;;;8.37;2.60;;;19.10;99.90;;;;;;5041642;28;20200;-62
2023/08/30 10:56:49;;;;;;;8.07;2.87;;;19.10;99.90;;;;;;5043193;28;20271;-62
2023/08/30 10:59:18;;;;;;;9.53;2.50;;;19.20;99.90;;;;;;5041448;28;20221;-62
2023/08/30 11:01:48;;;;;;;5.47;2.33;;;19.30;99.90;;;;;;5044784;28;20217;-62
2023/08/30 11:04:17;;;;;;;4.57;2.70;;;19.30;99.90;;;;;;5051407;28;20221;-62
2023/08/30 11:06:49;;;;;;;6.03;2.40;;;19.30;99.90;;;;;;5038280;28;20583;-61
2023/08/30 11:09:19;;;;;;;3.90;2.00;;;19.30;99.90;;;;;;5044581;28;20235;-61
2023/08/30 11:11:47;;;;;;;7.60;2.83;;;19.30;99.90;;;;;;5041040;28;20197;-62
2023/08/30 11:14:17;;;;;;;6.93;2.73;;;19.30;99.90;;;;;;5041080;28;20650;-62
2023/08/30 11:16:46;;;;;;;5.80;2.57;;;19.40;99.90;;;;;;5041143;28;20741;-62
2023/08/30 11:19:14;;;;;;;7.50;2.37;;;19.60;99.90;;;;;;5043796;28;20256;-62
2023/08/30 11:21:45;;;;;;;3.57;2.17;;;19.60;99.90;;;;;;5046736;28;20282;-61
2023/08/30 11:24:16;;;;;;;5.33;2.10;;;19.50;99.90;;;;;;5040466;28;20205;-61
2023/08/30 11:26:45;;;;;;;5.63;2.40;;;19.40;99.90;;;;;;5043222;28;20200;-62
2023/08/30 11:29:13;;;;;;;5.30;2.07;;;19.50;99.90;;;;;;5041164;28;20223;-62
2023/08/30 11:31:45;;;;;;;5.40;2.67;;;19.50;99.90;;;;;;5041587;28;20220;-62
2023/08/30 11:34:14;;;;;;;10.90;2.30;;;19.90;99.90;;;;;;5038547;28;20552;-62
2023/08/30 11:36:42;;;;;;;3.80;1.90;;;20.30;99.90;;;;;;5041293;28;20307;-62
2023/08/30 11:39:11;;;;;;;4.93;2.20;;;20.90;99.90;;;;;;5022933;28;20274;-61
2023/08/30 11:41:41;;;;;;;5.33;2.07;;;20.90;99.90;;;;;;5043715;28;20205;-62
2023/08/30 11:44:09;;;;;;;5.67;2.30;;;20.90;99.90;;;;;;5047085;28;20287;-61
2023/08/30 11:46:37;;;;;;;3.23;1.87;;;21.20;99.90;;;;;;5044434;28;20713;-62
2023/08/30 11:49:06;;;;;;;5.13;2.20;;;21.50;99.90;;;;;;5045606;28;20242;-62
2023/08/30 11:51:35;;;;;;;3.70;2.30;;;21.70;99.90;;;;;;5042000;28;20233;-62
2023/08/30 11:54:04;;;;;;;4.50;2.13;;;21.70;99.90;;;;;;5043633;28;20291;-61
2023/08/30 11:56:32;;;;;;;4.40;2.40;;;21.80;99.90;;;;;;5045000;28;20220;-62
2023/08/30 11:59:02;;;;;;;4.30;1.93;;;21.90;99.90;;;;;;5044091;28;20703;-63
2023/08/30 12:01:31;;;;;;;7.00;2.30;;;22.00;99.90;;;;;;5043745;28;20221;-62
2023/08/30 12:03:59;;;;;;;8.67;2.13;;;22.00;99.90;;;;;;5042259;28;20250;-62
2023/08/30 12:06:27;;;;;;;3.87;1.93;;;22.40;99.90;;;;;;5046041;28;20311;-62
2023/08/30 12:08:59;;;;;;;3.67;1.90;;;22.70;99.90;;;;;;5041620;28;20220;-61
2023/08/30 12:11:29;;;;;;;5.43;1.90;;;23.00;99.90;;;;;;5045030;28;21151;-62
2023/08/30 12:14:04;;;;;;;3.50;1.80;;;22.90;99.90;;;;;;5038907;28;20239;-63
2023/08/30 12:16:33;;;;;;;5.27;2.30;;;22.20;99.90;;;;;;5040951;28;20220;-62
2023/08/30 12:19:09;;;;;;;6.33;1.87;;;21.90;99.90;;;;;;5041989;28;20226;-63
2023/08/30 12:21:42;;;;;;;4.13;1.70;;;21.80;99.90;;;;;;5045164;28;20227;-62
2023/08/30 12:24:10;;;;;;;4.17;1.90;;;21.50;99.90;;;;;;5043621;28;20187;-62
2023/08/30 12:26:38;;;;;;;5.77;2.03;;;21.60;99.90;;;;;;5044059;28;20186;-62
2023/08/30 12:29:08;;;;;;;4.90;1.50;;;21.30;99.90;;;;;;5041477;28;20234;-62
2023/08/30 12:31:37;;;;;;;5.07;1.97;;;21.10;99.90;;;;;;5042307;28;20226;-63
2023/08/30 12:34:05;;;;;;;6.00;1.80;;;21.20;99.90;;;;;;5042919;28;20230;-63
2023/08/30 12:36:34;;;;;;;6.17;1.70;;;20.90;99.90;;;;;;5043124;28;20586;-62
2023/08/30 12:39:04;;;;;;;3.07;1.73;;;20.60;99.90;;;;;;5039268;28;20542;-62
2023/08/30 12:41:32;;;;;;;3.00;1.97;;;20.40;99.90;;;;;;5021899;28;20197;-62
2023/08/30 12:44:02;;;;;;;2.47;1.80;;;20.50;99.90;;;;;;5043084;28;20237;-62
2023/08/30 12:46:33;;;;;;;3.93;1.90;;;20.90;99.90;;;;;;5043036;28;20218;-63
2023/08/30 12:49:02;;;;;;;3.70;1.63;;;21.20;99.90;;;;;;5045268;28;20258;-62
2023/08/30 12:51:30;;;;;;;2.37;1.43;;;21.30;99.90;;;;;;5043181;28;20248;-62